Time;durP1;ratioP1;P1;durP2;ratioP2;P2;SDS_P1;SDS_P2;PMS_P1;PMS_P2;Temp;Humidity;BMP_temperature;BMP_pressure;BME280_temperature;BME280_humidity;BME280_pressure;Samples;Min_cycle;Max_cycle;Signal;HPM_P1;HPM_P2
2022/08/16 00:01:46;;;;;;;;;;;;;;;18.13;70.91;99842.56;5098970;28;19969;-71
2022/08/16 00:04:49;;;;;;;;;;;;;;;18.05;71.38;99842.44;5102983;28;20049;-71
2022/08/16 00:07:53;;;;;;;;;;;;;;;17.94;71.80;99842.63;5098087;28;19922;-71
2022/08/16 00:10:56;;;;;;;;;;;;;;;18.12;71.26;99840.88;5095623;28;19918;-71
2022/08/16 00:14:00;;;;;;;;;;;;;;;18.36;70.27;99843.84;5095671;28;19914;-70
2022/08/16 00:17:03;;;;;;;;;;;;;;;18.38;69.66;99850.78;5092892;28;19961;-70
2022/08/16 00:20:07;;;;;;;;;;;;;;;18.43;69.85;99859.13;5098252;28;20287;-71
2022/08/16 00:23:12;;;;;;;;;;;;;;;18.25;70.83;99846.69;5091241;28;19923;-71
2022/08/16 00:26:15;;;;;;;;;;;;;;;18.13;71.35;99843.38;5089214;28;19961;-71
2022/08/16 00:29:18;;;;;;;;;;;;;;;18.16;71.37;99852.84;5089421;28;19911;-71
2022/08/16 00:32:21;;;;;;;;;;;;;;;18.07;71.54;99853.72;5087974;28;19935;-71
2022/08/16 00:35:26;;;;;;;;;;;;;;;18.15;71.37;99864.38;5088586;28;19919;-71
2022/08/16 00:38:29;;;;;;;;;;;;;;;18.00;71.67;99860.56;5088103;28;19919;-71
2022/08/16 00:41:33;;;;;;;;;;;;;;;17.99;71.87;99850.94;5087621;28;19920;-71
2022/08/16 00:44:36;;;;;;;;;;;;;;;17.96;71.76;99846.78;5090785;28;20022;-71
2022/08/16 00:47:42;;;;;;;;;;;;;;;18.07;71.11;99846.59;5109464;28;19922;-71
2022/08/16 00:50:45;;;;;;;;;;;;;;;17.87;72.21;99858.25;5109178;28;19985;-71
2022/08/16 00:53:49;;;;;;;;;;;;;;;17.87;72.20;99859.06;5109130;28;20003;-70
2022/08/16 00:56:53;;;;;;;;;;;;;;;17.83;72.29;99867.41;5092959;28;19923;-71
2022/08/16 00:59:56;;;;;;;;;;;;;;;17.77;72.23;99860.91;5087932;28;19973;-71
2022/08/16 01:03:01;;;;;;;;;;;;;;;17.71;72.64;99864.09;5088619;28;20026;-71
2022/08/16 01:06:05;;;;;;;;;;;;;;;17.68;72.76;99864.38;5088446;28;19965;-71
2022/08/16 01:09:09;;;;;;;;;;;;;;;17.86;71.98;99859.19;5089317;28;19958;-71
2022/08/16 01:12:12;;;;;;;;;;;;;;;17.93;71.53;99862.09;5088518;28;19974;-71
2022/08/16 01:15:16;;;;;;;;;;;;;;;17.62;73.02;99860.47;5089104;28;20388;-71
2022/08/16 01:18:21;;;;;;;;;;;;;;;17.43;73.80;99863.16;5087482;28;19961;-71
2022/08/16 01:21:25;;;;;;;;;;;;;;;17.53;73.51;99860.50;5066979;28;19918;-71
2022/08/16 01:25:01;;;;;;;;;;;;;;;17.88;71.32;99860.72;5080725;28;19918;-71
2022/08/16 01:28:06;;;;;;;;;;;;;;;17.63;72.17;99858.66;5089618;28;19964;-71
2022/08/16 01:31:11;;;;;;;;;;;;;;;17.51;72.65;99862.44;5109260;28;19960;-71
2022/08/16 01:34:16;;;;;;;;;;;;;;;17.64;72.07;99866.47;5112287;28;19965;-71
2022/08/16 01:37:20;;;;;;;;;;;;;;;17.42;73.45;99867.59;5111056;28;19984;-71
2022/08/16 01:40:27;;;;;;;;;;;;;;;17.64;72.47;99869.09;5070181;28;19922;-71
2022/08/16 01:43:31;;;;;;;;;;;;;;;17.35;73.84;99866.47;5071428;28;20347;-71
2022/08/16 01:46:44;;;;;;;;;;;;;;;17.30;74.19;99866.06;5069884;28;19970;-71
2022/08/16 01:49:53;;;;;;;;;;;;;;;17.19;74.47;99866.19;5070825;28;19919;-71
2022/08/16 01:52:55;;;;;;;;;;;;;;;17.17;74.33;99860.22;5076144;28;20449;-71
2022/08/16 01:56:17;;;;;;;;;;;;;;;17.09;74.69;99852.16;5091355;28;19919;-71
2022/08/16 01:59:21;;;;;;;;;;;;;;;17.05;74.60;99854.25;5091069;28;20511;-71
2022/08/16 02:02:24;;;;;;;;;;;;;;;17.03;74.45;99857.97;5090891;28;19919;-70
2022/08/16 02:05:28;;;;;;;;;;;;;;;17.01;74.74;99855.50;5091379;28;20018;-71
2022/08/16 02:08:31;;;;;;;;;;;;;;;17.01;74.89;99859.94;5090183;28;19977;-71
2022/08/16 02:11:35;;;;;;;;;;;;;;;17.04;74.91;99859.66;5091370;28;19923;-70
2022/08/16 02:14:38;;;;;;;;;;;;;;;17.04;75.13;99852.59;5091901;28;19923;-70
2022/08/16 02:17:42;;;;;;;;;;;;;;;16.85;75.43;99858.66;5090666;28;20101;-71
2022/08/16 02:20:51;;;;;;;;;;;;;;;16.90;75.33;99850.31;5090640;28;19918;-71
2022/08/16 02:23:57;;;;;;;;;;;;;;;16.86;75.66;99844.50;5090731;28;19923;-71
2022/08/16 02:27:00;;;;;;;;;;;;;;;16.77;75.77;99850.59;5090560;28;19935;-71
2022/08/16 02:30:05;;;;;;;;;;;;;;;16.83;75.85;99857.13;5091353;28;19919;-71
2022/08/16 02:33:09;;;;;;;;;;;;;;;16.89;75.56;99856.59;5090435;28;19961;-71
2022/08/16 02:36:13;;;;;;;;;;;;;;;16.71;76.23;99856.38;5090006;28;19919;-70
2022/08/16 02:39:19;;;;;;;;;;;;;;;16.91;75.36;99852.84;5091309;28;19918;-70
2022/08/16 02:42:22;;;;;;;;;;;;;;;16.83;75.17;99859.78;5091530;28;19962;-70
2022/08/16 02:45:26;;;;;;;;;;;;;;;16.89;74.68;99862.69;5080546;28;20309;-70
2022/08/16 02:48:30;;;;;;;;;;;;;;;16.73;75.36;99862.38;5069764;28;19923;-70
2022/08/16 02:51:37;;;;;;;;;;;;;;;16.70;75.49;99867.91;5068916;28;19986;-70
2022/08/16 02:54:41;;;;;;;;;;;;;;;16.60;75.91;99867.06;5070469;28;19961;-70
2022/08/16 02:57:44;;;;;;;;;;;;;;;16.62;75.76;99871.22;5070028;28;19934;-70
2022/08/16 03:00:48;;;;;;;;;;;;;;;16.53;76.10;99869.41;5070258;28;20297;-70
2022/08/16 03:03:53;;;;;;;;;;;;;;;16.42;76.43;99859.78;5070471;28;19924;-70
2022/08/16 03:06:56;;;;;;;;;;;;;;;16.40;76.83;99861.72;5069663;28;19942;-71
2022/08/16 03:10:11;;;;;;;;;;;;;;;16.40;76.34;99864.38;5070213;28;19919;-70
2022/08/16 03:13:18;;;;;;;;;;;;;;;16.28;76.81;99857.50;5069759;28;19950;-70
2022/08/16 03:16:22;;;;;;;;;;;;;;;16.38;76.63;99849.63;5070437;28;19938;-70
2022/08/16 03:19:28;;;;;;;;;;;;;;;16.39;76.24;99854.75;5057364;28;19942;-71
2022/08/16 03:22:34;;;;;;;;;;;;;;;16.48;75.46;99867.16;5070052;28;19927;-71
2022/08/16 03:25:42;;;;;;;;;;;;;;;16.45;75.92;99864.78;5069199;28;20357;-71
2022/08/16 03:28:46;;;;;;;;;;;;;;;16.38;76.56;99863.66;5067771;28;20005;-71
2022/08/16 03:31:50;;;;;;;;;;;;;;;16.36;76.75;99864.75;5067959;28;19966;-71
2022/08/16 03:34:53;;;;;;;;;;;;;;;16.37;77.08;99872.53;5067210;28;19934;-70
2022/08/16 03:37:59;;;;;;;;;;;;;;;16.38;76.78;99873.38;5071611;28;19923;-70
2022/08/16 03:41:06;;;;;;;;;;;;;;;16.35;76.66;99878.91;5089134;28;20344;-71
2022/08/16 03:44:10;;;;;;;;;;;;;;;16.27;76.72;99872.50;5061627;28;19931;-70
2022/08/16 03:47:13;;;;;;;;;;;;;;;16.16;76.92;99874.38;5067720;28;19923;-70
2022/08/16 03:50:18;;;;;;;;;;;;;;;16.03;77.71;99886.00;5067410;28;19919;-70
2022/08/16 03:53:21;;;;;;;;;;;;;;;16.01;77.82;99877.34;5068230;28;20312;-70
2022/08/16 03:56:26;;;;;;;;;;;;;;;16.03;77.90;99890.44;5067337;28;19919;-70
2022/08/16 03:59:31;;;;;;;;;;;;;;;16.12;77.58;99888.81;5067686;28;20392;-71
2022/08/16 04:02:37;;;;;;;;;;;;;;;16.20;77.06;99900.34;5066473;28;19935;-70
2022/08/16 04:05:45;;;;;;;;;;;;;;;16.32;74.70;99887.94;5056105;28;19923;-70
2022/08/16 04:08:49;;;;;;;;;;;;;;;16.28;74.97;99889.16;5056356;28;19938;-71
2022/08/16 04:11:53;;;;;;;;;;;;;;;16.20;77.00;99883.72;5059346;28;19966;-70
2022/08/16 04:14:56;;;;;;;;;;;;;;;16.21;77.22;99888.03;5046808;28;20385;-69
2022/08/16 04:18:00;;;;;;;;;;;;;;;16.17;77.27;99882.16;5047512;28;20285;-72
2022/08/16 04:21:04;;;;;;;;;;;;;;;16.15;77.05;99878.00;5048388;28;20012;-70
2022/08/16 04:24:08;;;;;;;;;;;;;;;16.12;77.38;99889.66;5048273;28;19931;-68
2022/08/16 04:27:12;;;;;;;;;;;;;;;16.05;77.74;99888.50;5047312;28;19958;-69
2022/08/16 04:30:18;;;;;;;;;;;;;;;15.98;77.93;99888.16;5052133;28;19920;-69
2022/08/16 04:33:25;;;;;;;;;;;;;;;15.81;78.81;99891.41;5065125;28;19970;-68
2022/08/16 04:36:29;;;;;;;;;;;;;;;15.89;78.91;99894.25;5065029;28;20020;-68
2022/08/16 04:39:33;;;;;;;;;;;;;;;15.88;78.79;99897.81;5065303;28;19931;-68
2022/08/16 04:42:39;;;;;;;;;;;;;;;16.31;77.29;99902.09;5066820;28;19966;-68
2022/08/16 04:45:42;;;;;;;;;;;;;;;16.24;77.09;99907.06;5052196;28;19970;-68
2022/08/16 04:48:49;;;;;;;;;;;;;;;16.17;77.38;99905.06;5046940;28;20389;-68
2022/08/16 04:51:52;;;;;;;;;;;;;;;16.13;77.51;99896.59;5048126;28;19979;-68
2022/08/16 04:54:56;;;;;;;;;;;;;;;16.46;76.28;99902.56;5047566;28;20426;-65
2022/08/16 04:57:59;;;;;;;;;;;;;;;16.65;75.16;99901.78;5047873;28;19912;-65
2022/08/16 05:01:04;;;;;;;;;;;;;;;16.70;74.70;99905.69;5047344;28;20314;-66
2022/08/16 05:04:08;;;;;;;;;;;;;;;16.82;74.44;99913.56;5047028;28;20440;-64
2022/08/16 05:07:44;;;;;;;;;;;;;;;16.91;72.63;99907.44;5050137;28;20414;-66
2022/08/16 05:11:03;;;;;;;;;;;;;;;16.72;72.94;99908.22;5050660;28;19919;-66
2022/08/16 05:14:06;;;;;;;;;;;;;;;16.76;73.11;99907.00;5063881;28;19946;-66
2022/08/16 05:17:12;;;;;;;;;;;;;;;17.01;72.67;99912.78;5071756;28;19918;-65
2022/08/16 05:20:16;;;;;;;;;;;;;;;16.99;73.07;99912.06;5071249;28;20580;-65
2022/08/16 05:23:19;;;;;;;;;;;;;;;17.08;73.22;99916.53;5070946;28;19962;-66
2022/08/16 05:26:24;;;;;;;;;;;;;;;17.24;72.60;99916.00;5071180;28;19919;-65
2022/08/16 05:29:27;;;;;;;;;;;;;;;17.20;72.20;99921.56;4706782;28;9999849;-65
2022/08/16 05:32:43;;;;;;;;;;;;;;;17.24;71.13;99935.31;5064095;28;19919;-65
2022/08/16 05:35:49;;;;;;;;;;;;;;;17.24;71.32;99926.56;5070359;28;19963;-65
2022/08/16 05:38:56;;;;;;;;;;;;;;;17.25;71.49;99930.88;5070770;28;19957;-67
2022/08/16 05:42:00;;;;;;;;;;;;;;;17.28;71.64;99928.78;5067354;28;20692;-65
2022/08/16 05:45:03;;;;;;;;;;;;;;;17.37;72.08;99927.13;5063296;28;20400;-65
2022/08/16 05:48:07;;;;;;;;;;;;;;;17.08;74.06;99932.38;5079350;28;20006;-67
2022/08/16 05:51:40;;;;;;;;;;;;;;;17.12;74.48;99931.13;4744886;28;9999793;-66
2022/08/16 05:54:44;;;;;;;;;;;;;;;17.34;73.39;99924.75;5099122;28;19949;-65
2022/08/16 05:57:47;;;;;;;;;;;;;;;17.49;72.73;99931.31;5112974;28;19918;-65
2022/08/16 06:00:51;;;;;;;;;;;;;;;17.66;72.15;99940.34;5113144;28;19918;-65
2022/08/16 06:03:54;;;;;;;;;;;;;;;17.68;71.82;99943.69;5114303;28;19923;-65
2022/08/16 06:07:05;;;;;;;;;;;;;;;17.88;71.24;99949.81;5114293;28;19918;-65
2022/08/16 06:10:11;;;;;;;;;;;;;;;17.72;73.18;99944.25;5114017;28;20008;-65
2022/08/16 06:13:14;;;;;;;;;;;;;;;17.77;73.19;99953.47;5114994;28;19918;-67
2022/08/16 06:16:17;;;;;;;;;;;;;;;17.64;73.11;99943.13;5115054;28;19919;-66
2022/08/16 06:19:20;;;;;;;;;;;;;;;17.88;72.06;99942.72;5112806;28;19934;-65
2022/08/16 06:22:36;;;;;;;;;;;;;;;17.95;71.88;99945.63;5113358;28;19927;-65
2022/08/16 06:25:39;;;;;;;;;;;;;;;17.88;72.58;99939.25;5122648;27;20005;-66
2022/08/16 06:28:44;;;;;;;;;;;;;;;18.11;71.93;99939.75;5122686;27;20040;-64
2022/08/16 06:31:52;;;;;;;;;;;;;;;18.23;71.29;99933.31;5122798;27;19955;-65
2022/08/16 06:34:56;;;;;;;;;;;;;;;18.35;71.14;99937.47;5122356;27;19922;-65
2022/08/16 06:37:59;;;;;;;;;;;;;;;18.24;71.94;99934.97;5122757;27;19964;-64
2022/08/16 06:41:04;;;;;;;;;;;;;;;18.30;72.13;99936.22;5122875;27;20289;-63
2022/08/16 06:44:08;;;;;;;;;;;;;;;18.60;70.95;99937.75;5101735;28;20335;-65
2022/08/16 06:47:12;;;;;;;;;;;;;;;18.70;70.40;99935.09;5101620;28;19942;-65
2022/08/16 06:50:15;;;;;;;;;;;;;;;18.84;70.40;99937.28;5113730;28;20001;-65
2022/08/16 06:53:23;;;;;;;;;;;;;;;18.84;71.02;99936.44;5101505;28;19919;-65
2022/08/16 06:56:35;;;;;;;;;;;;;;;18.93;70.82;99936.38;5099399;28;19964;-64
2022/08/16 06:59:48;;;;;;;;;;;;;;;18.94;70.86;99938.03;5100096;28;20293;-65
2022/08/16 07:02:55;;;;;;;;;;;;;;;19.09;70.30;99930.44;5101628;28;20315;-64
2022/08/16 07:05:58;;;;;;;;;;;;;;;19.31;69.97;99938.94;5101428;28;19968;-64
2022/08/16 07:09:06;;;;;;;;;;;;;;;19.51;69.94;99940.44;5100937;28;19918;-65
2022/08/16 07:12:10;;;;;;;;;;;;;;;19.60;69.83;99944.84;5101323;28;19918;-65
2022/08/16 07:15:20;;;;;;;;;;;;;;;19.67;69.48;99945.94;5101277;28;20003;-63
2022/08/16 07:18:26;;;;;;;;;;;;;;;19.78;69.36;99946.66;5101149;28;19960;-64
2022/08/16 07:21:29;;;;;;;;;;;;;;;19.86;70.01;99944.09;5101739;28;20368;-64
2022/08/16 07:24:39;;;;;;;;;;;;;;;19.98;69.68;99940.22;5101998;28;19936;-63
2022/08/16 07:27:43;;;;;;;;;;;;;;;20.13;69.17;99941.31;5080830;28;19976;-64
2022/08/16 07:30:50;;;;;;;;;;;;;;;20.43;68.20;99947.94;5080880;28;19954;-64
2022/08/16 07:34:13;;;;;;;;;;;;;;;20.43;68.39;99942.63;5093254;28;19935;-64
2022/08/16 07:37:17;;;;;;;;;;;;;;;20.47;68.34;99942.31;5080697;28;19918;-64
2022/08/16 07:40:41;;;;;;;;;;;;;;;20.58;67.73;99944.72;5080356;28;19918;-63
2022/08/16 07:43:45;;;;;;;;;;;;;;;20.65;67.51;99929.84;5086803;28;19957;-63
2022/08/16 07:46:50;;;;;;;;;;;;;;;20.79;67.30;99936.34;5099775;28;20374;-63
2022/08/16 07:49:56;;;;;;;;;;;;;;;20.82;67.52;99936.03;5100517;28;20335;-64
2022/08/16 07:52:59;;;;;;;;;;;;;;;20.87;67.15;99939.06;5113085;28;19969;-64
2022/08/16 07:56:02;;;;;;;;;;;;;;;20.90;66.90;99938.72;5099985;28;19930;-63
2022/08/16 07:59:11;;;;;;;;;;;;;;;20.94;66.43;99937.41;5096587;28;19960;-63
2022/08/16 08:02:15;;;;;;;;;;;;;;;21.00;66.47;99942.06;5097547;28;20043;-64
2022/08/16 08:05:20;;;;;;;;;;;;;;;21.07;65.66;99934.28;5097290;28;20308;-63
2022/08/16 08:08:23;;;;;;;;;;;;;;;21.58;63.41;99929.75;5087450;28;19972;-64
2022/08/16 08:11:27;;;;;;;;;;;;;;;21.65;62.84;99928.06;5106310;28;19919;-62
2022/08/16 08:14:31;;;;;;;;;;;;;;;21.37;64.12;99932.88;5095911;28;19918;-64
2022/08/16 08:17:38;;;;;;;;;;;;;;;21.41;64.30;99925.38;5095786;28;20000;-65
2022/08/16 08:20:45;;;;;;;;;;;;;;;21.48;64.00;99927.25;5094074;28;19919;-65
2022/08/16 08:23:51;;;;;;;;;;;;;;;21.57;63.78;99931.56;5098058;27;19938;-69
2022/08/16 08:26:57;;;;;;;;;;;;;;;21.63;62.93;99934.53;5108133;27;20387;-66
2022/08/16 08:30:00;;;;;;;;;;;;;;;21.65;62.18;99937.88;5117332;27;19976;-64
2022/08/16 08:33:08;;;;;;;;;;;;;;;21.63;62.21;99935.38;5117083;27;20322;-64
2022/08/16 08:36:31;;;;;;;;;;;;;;;21.72;61.99;99934.38;5116862;27;19918;-65
2022/08/16 08:39:37;;;;;;;;;;;;;;;21.92;61.79;99926.06;5101768;28;19923;-63
2022/08/16 08:42:42;;;;;;;;;;;;;;;21.93;61.72;99928.56;5107555;28;19995;-64
2022/08/16 08:45:47;;;;;;;;;;;;;;;22.12;61.57;99926.53;5095750;28;19930;-65
2022/08/16 08:48:52;;;;;;;;;;;;;;;22.28;60.25;99929.19;5109582;28;19918;-64
2022/08/16 08:52:12;;;;;;;;;;;;;;;22.24;59.75;99931.38;5096358;28;19919;-65
2022/08/16 08:55:16;;;;;;;;;;;;;;;22.37;59.43;99932.69;5064363;28;19919;-65
2022/08/16 08:58:32;;;;;;;;;;;;;;;22.30;57.92;99935.16;5099215;28;19922;-64
2022/08/16 09:02:23;;;;;;;;;;;;;;;22.38;58.43;99929.00;5117009;27;20527;-64
2022/08/16 09:06:04;;;;;;;;;;;;;;;22.56;57.78;99931.41;5130205;27;19922;-64
2022/08/16 09:09:12;;;;;;;;;;;;;;;22.53;57.52;99929.97;5096378;28;19962;-65
2022/08/16 09:12:20;;;;;;;;;;;;;;;22.46;57.13;99932.47;5096711;28;20273;-64
2022/08/16 09:15:38;;;;;;;;;;;;;;;22.49;56.16;99934.81;5096752;28;19999;-64
2022/08/16 09:18:43;;;;;;;;;;;;;;;22.87;55.34;99934.94;5106464;28;19918;-64
2022/08/16 09:21:48;;;;;;;;;;;;;;;22.94;55.61;99938.63;5087064;28;19918;-64
2022/08/16 09:24:56;;;;;;;;;;;;;;;23.09;55.64;99932.53;5107544;28;20016;-65
2022/08/16 09:28:00;;;;;;;;;;;;;;;23.08;54.66;99933.56;5107956;28;19918;-64
2022/08/16 09:31:06;;;;;;;;;;;;;;;23.05;54.34;99928.59;5107675;28;20392;-64
2022/08/16 09:34:10;;;;;;;;;;;;;;;23.11;54.07;99933.22;5108997;28;19918;-64
2022/08/16 09:37:14;;;;;;;;;;;;;;;23.21;54.85;99947.16;5108841;28;19918;-64
2022/08/16 09:40:23;;;;;;;;;;;;;;;23.26;53.24;99941.28;5109073;28;19918;-68
2022/08/16 09:43:27;;;;;;;;;;;;;;;23.36;52.07;99923.22;4384054;28;10000952;-65
2022/08/16 09:46:41;;;;;;;;;;;;;;;23.50;51.18;99929.63;5088321;28;20396;-65
2022/08/16 09:49:45;;;;;;;;;;;;;;;23.52;51.59;99931.09;5107762;28;19971;-65
2022/08/16 09:52:52;;;;;;;;;;;;;;;23.44;51.85;99936.47;5113344;27;20590;-64
2022/08/16 09:55:55;;;;;;;;;;;;;;;23.44;51.58;99931.97;5125710;27;20023;-66
2022/08/16 09:58:59;;;;;;;;;;;;;;;23.52;52.90;99927.59;5111418;28;19957;-67
2022/08/16 10:02:02;;;;;;;;;;;;;;;23.61;50.99;99927.38;5112773;27;19929;-65
2022/08/16 10:05:06;;;;;;;;;;;;;;;23.72;50.37;99925.31;5118685;27;19927;-67
2022/08/16 10:08:09;;;;;;;;;;;;;;;23.87;49.61;99926.16;5103637;27;19923;-66
2022/08/16 10:14:54;;;;;;;;;;;;;;;23.98;49.65;99916.88;5055521;28;19920;-66
2022/08/16 10:17:57;;;;;;;;;;;;;;;24.02;49.59;99918.16;5054206;28;19919;-66
2022/08/16 10:21:00;;;;;;;;;;;;;;;24.12;49.22;99914.25;5117121;27;19919;-66
2022/08/16 10:24:05;;;;;;;;;;;;;;;24.28;47.98;99913.25;5121218;27;20445;-66
2022/08/16 10:27:09;;;;;;;;;;;;;;;24.53;48.27;99918.31;5116699;27;19922;-65
2022/08/16 10:30:13;;;;;;;;;;;;;;;24.54;47.00;99918.13;5090665;28;19938;-65
2022/08/16 10:33:16;;;;;;;;;;;;;;;24.57;46.70;99911.59;5103316;27;20423;-64
2022/08/16 10:36:20;;;;;;;;;;;;;;;24.66;46.99;99917.66;5101259;28;19921;-69
2022/08/16 10:39:23;;;;;;;;;;;;;;;24.69;46.74;99907.41;5119688;27;19919;-69
2022/08/16 10:42:26;;;;;;;;;;;;;;;24.71;45.71;99909.91;5113253;27;19982;-71
2022/08/16 10:45:31;;;;;;;;;;;;;;;24.83;46.12;99903.06;5098557;27;20356;-70
2022/08/16 10:48:35;;;;;;;;;;;;;;;25.02;45.83;99910.50;5099707;28;19922;-70
2022/08/16 10:51:38;;;;;;;;;;;;;;;25.12;44.92;99917.38;5131436;27;19963;-71
2022/08/16 10:54:42;;;;;;;;;;;;;;;25.17;44.25;99907.78;5126645;27;19925;-71
2022/08/16 10:57:45;;;;;;;;;;;;;;;25.17;44.66;99915.81;5091219;28;19931;-70
2022/08/16 11:00:48;;;;;;;;;;;;;;;25.20;45.34;99910.06;5102854;27;20013;-70
2022/08/16 11:03:52;;;;;;;;;;;;;;;25.15;43.85;99907.16;5090210;28;19946;-70
2022/08/16 11:06:55;;;;;;;;;;;;;;;25.18;45.32;99911.31;5097517;27;19922;-70
2022/08/16 11:10:01;;;;;;;;;;;;;;;25.15;45.18;99909.00;5125081;27;19919;-70
2022/08/16 11:13:05;;;;;;;;;;;;;;;25.39;43.47;99913.16;4765813;27;9999641;-71
2022/08/16 11:16:10;;;;;;;;;;;;;;;25.66;43.12;99912.38;5102539;27;19953;-71
2022/08/16 11:19:14;;;;;;;;;;;;;;;25.55;43.17;99912.88;5116326;27;19922;-69
2022/08/16 11:22:18;;;;;;;;;;;;;;;25.51;43.19;99908.94;5119126;27;19921;-69
2022/08/16 11:25:23;;;;;;;;;;;;;;;25.74;43.13;99920.25;5112006;27;20047;-71
2022/08/16 11:28:27;;;;;;;;;;;;;;;25.71;43.02;99920.63;4760830;27;10000418;-70
2022/08/16 11:31:30;;;;;;;;;;;;;;;25.43;43.19;99914.41;5123002;27;20063;-70
2022/08/16 11:34:33;;;;;;;;;;;;;;;25.29;43.22;99916.97;5113505;27;20395;-68
2022/08/16 11:37:37;;;;;;;;;;;;;;;25.31;43.07;99921.31;5121304;27;20733;-70
2022/08/16 11:40:47;;;;;;;;;;;;;;;25.19;43.62;99919.13;5130701;27;19919;-71
2022/08/16 11:43:50;;;;;;;;;;;;;;;25.21;44.58;99925.13;5122119;27;19954;-70
2022/08/16 11:46:54;;;;;;;;;;;;;;;25.18;44.95;99924.69;5109749;28;20039;-71
2022/08/16 11:49:57;;;;;;;;;;;;;;;25.20;45.21;99923.44;5110117;28;20403;-70
2022/08/16 11:53:04;;;;;;;;;;;;;;;25.26;44.03;99917.34;5110170;28;19919;-78
2022/08/16 11:56:07;;;;;;;;;;;;;;;25.29;44.03;99914.28;5109519;28;19933;-67
2022/08/16 11:59:11;;;;;;;;;;;;;;;25.26;45.57;99919.19;5109437;28;20383;-69
2022/08/16 12:02:14;;;;;;;;;;;;;;;25.27;45.13;99908.31;5110000;28;19922;-68
2022/08/16 12:05:17;;;;;;;;;;;;;;;25.26;43.57;99916.53;5102865;28;19923;-70
2022/08/16 12:08:21;;;;;;;;;;;;;;;25.31;45.19;99930.16;5077091;28;20012;-69
2022/08/16 12:11:25;;;;;;;;;;;;;;;25.31;46.09;99921.31;5089968;28;19919;-69
2022/08/16 12:14:29;;;;;;;;;;;;;;;25.35;44.85;99909.19;5110012;28;19934;-70
2022/08/16 12:17:32;;;;;;;;;;;;;;;25.53;42.87;99909.59;5109216;28;19917;-70
2022/08/16 12:20:37;;;;;;;;;;;;;;;25.91;43.61;99909.28;5109286;28;19960;-70
2022/08/16 12:23:40;;;;;;;;;;;;;;;26.11;42.34;99898.72;5093631;28;20015;-67
2022/08/16 12:26:43;;;;;;;;;;;;;;;26.11;42.71;99904.91;5081960;28;19922;-69
2022/08/16 12:29:50;;;;;;;;;;;;;;;25.88;43.77;99909.69;5108256;28;19937;-68
2022/08/16 12:32:52;;;;;;;;;;;;;;;26.36;41.80;99909.81;5109432;28;19919;-68
2022/08/16 12:35:57;;;;;;;;;;;;;;;26.83;41.04;99908.16;5109017;28;20288;-69
2022/08/16 12:39:03;;;;;;;;;;;;;;;27.13;40.95;99903.31;5108392;28;20138;-70
2022/08/16 12:42:08;;;;;;;;;;;;;;;27.48;39.31;99897.81;5107205;28;19923;-69
2022/08/16 12:45:13;;;;;;;;;;;;;;;27.87;38.48;99893.50;5108107;28;19968;-71
2022/08/16 12:51:40;;;;;;;;;;;;;;;27.61;38.65;99892.44;5109164;28;19910;-68
2022/08/16 12:54:44;;;;;;;;;;;;;;;28.07;38.22;99893.47;5107443;28;20221;-68
2022/08/16 12:57:48;;;;;;;;;;;;;;;28.08;37.97;99897.78;5107526;28;19910;-70
2022/08/16 13:00:51;;;;;;;;;;;;;;;28.62;36.28;99896.63;5108337;28;19961;-70
2022/08/16 13:03:54;;;;;;;;;;;;;;;28.99;35.83;99897.69;5108105;28;19922;-69
2022/08/16 13:06:58;;;;;;;;;;;;;;;29.18;35.11;99882.50;5107071;28;19938;-69
2022/08/16 13:10:08;;;;;;;;;;;;;;;29.36;35.13;99890.66;5107877;28;19934;-69
2022/08/16 13:13:15;;;;;;;;;;;;;;;29.86;34.72;99881.75;5115142;28;20562;-68
2022/08/16 13:16:18;;;;;;;;;;;;;;;29.40;34.08;99883.78;5116576;28;19970;-68
2022/08/16 13:19:21;;;;;;;;;;;;;;;29.81;32.96;99879.75;5105011;28;19980;-69
2022/08/16 13:22:25;;;;;;;;;;;;;;;29.94;33.77;99873.41;5117896;28;19917;-69
2022/08/16 13:25:29;;;;;;;;;;;;;;;30.46;32.02;99864.97;5114314;28;19926;-68
2022/08/16 13:28:33;;;;;;;;;;;;;;;30.71;32.20;99867.56;5114472;27;19965;-66
2022/08/16 13:31:36;;;;;;;;;;;;;;;31.13;31.29;99860.34;5118953;27;19964;-66
2022/08/16 13:34:40;;;;;;;;;;;;;;;31.78;30.86;99866.78;5119681;27;19919;-68
2022/08/16 13:37:43;;;;;;;;;;;;;;;31.81;29.89;99860.91;5115641;27;19956;-67
2022/08/16 13:40:47;;;;;;;;;;;;;;;32.55;28.92;99859.31;5119185;27;19961;-68
2022/08/16 13:43:51;;;;;;;;;;;;;;;33.37;27.61;99860.78;5119386;27;20602;-68
2022/08/16 13:46:55;;;;;;;;;;;;;;;34.25;25.75;99850.19;5120216;27;19969;-71
2022/08/16 13:50:04;;;;;;;;;;;;;;;34.90;25.75;99854.72;5117997;27;19961;-69
2022/08/16 13:53:15;;;;;;;;;;;;;;;36.40;23.98;99849.25;5119605;27;19919;-70
2022/08/16 13:56:22;;;;;;;;;;;;;;;38.86;21.32;99845.13;5118932;27;19948;-71
2022/08/16 13:59:27;;;;;;;;;;;;;;;37.45;21.74;99848.91;5104888;27;19958;-71
2022/08/16 14:02:30;;;;;;;;;;;;;;;35.62;24.25;99849.94;5119072;27;19923;-70
2022/08/16 14:05:33;;;;;;;;;;;;;;;33.92;26.48;99862.75;5119674;27;20299;-70
2022/08/16 14:08:37;;;;;;;;;;;;;;;37.98;20.09;99851.28;5119243;27;20387;-70
2022/08/16 14:11:41;;;;;;;;;;;;;;;41.34;17.88;99849.06;5120780;27;19960;-68
2022/08/16 14:14:45;;;;;;;;;;;;;;;41.48;16.59;99841.69;5108829;27;20291;-69
2022/08/16 14:17:48;;;;;;;;;;;;;;;37.00;21.80;99848.63;5117588;27;19968;-68
2022/08/16 14:20:52;;;;;;;;;;;;;;;35.82;23.16;99844.59;5116977;27;20012;-68
2022/08/16 14:23:55;;;;;;;;;;;;;;;33.74;26.08;99841.31;5119803;27;19992;-71
2022/08/16 14:26:58;;;;;;;;;;;;;;;31.84;28.07;99846.91;5118224;27;19919;-71
2022/08/16 14:30:03;;;;;;;;;;;;;;;31.22;29.23;99837.34;5126251;27;20399;-71
2022/08/16 14:33:07;;;;;;;;;;;;;;;29.56;30.40;99851.97;5115519;27;19919;-72
2022/08/16 14:36:10;;;;;;;;;;;;;;;28.84;31.70;99846.03;5124734;27;19918;-69
2022/08/16 14:39:14;;;;;;;;;;;;;;;28.78;32.60;99842.34;5121332;27;19932;-70
2022/08/16 14:42:20;;;;;;;;;;;;;;;28.70;32.99;99842.59;5118668;27;20101;-68
2022/08/16 14:45:29;;;;;;;;;;;;;;;28.64;33.60;99852.34;5114245;27;20073;-69
2022/08/16 14:48:33;;;;;;;;;;;;;;;28.59;33.91;99843.25;5099215;27;20683;-69
2022/08/16 14:51:36;;;;;;;;;;;;;;;28.39;35.13;99846.00;5111154;28;19919;-69
2022/08/16 14:54:41;;;;;;;;;;;;;;;28.36;34.58;99839.19;5116002;27;20521;-69
2022/08/16 14:57:47;;;;;;;;;;;;;;;28.30;34.43;99845.41;5111023;28;19919;-69
2022/08/16 15:00:56;;;;;;;;;;;;;;;28.10;35.47;99834.75;5110994;28;19988;-68
2022/08/16 15:04:00;;;;;;;;;;;;;;;27.92;35.80;99832.72;5107844;28;19923;-68
2022/08/16 15:07:03;;;;;;;;;;;;;;;27.88;35.68;99831.47;5110417;28;19992;-66
2022/08/16 15:10:10;;;;;;;;;;;;;;;27.74;37.34;99836.03;5110201;28;20408;-65
2022/08/16 15:13:14;;;;;;;;;;;;;;;27.65;37.92;99837.28;5115694;27;20396;-64
2022/08/16 15:16:30;;;;;;;;;;;;;;;27.68;38.88;99838.72;5109383;28;19918;-65
2022/08/16 15:19:34;;;;;;;;;;;;;;;27.64;38.78;99834.81;5108576;28;19914;-65
2022/08/16 15:22:39;;;;;;;;;;;;;;;27.67;37.46;99829.03;5096530;28;19923;-65
2022/08/16 15:25:46;;;;;;;;;;;;;;;27.64;39.92;99832.13;5109594;28;19995;-65
2022/08/16 15:28:53;;;;;;;;;;;;;;;27.53;39.48;99829.00;5110331;28;20299;-63
2022/08/16 15:31:57;;;;;;;;;;;;;;;27.70;37.68;99831.31;5110158;28;19960;-65
2022/08/16 15:35:01;;;;;;;;;;;;;;;27.77;38.92;99834.81;5110834;28;20006;-65
2022/08/16 15:38:05;;;;;;;;;;;;;;;27.71;39.87;99835.63;5110805;28;19999;-65
2022/08/16 15:41:08;;;;;;;;;;;;;;;27.77;37.23;99837.50;5110646;28;20015;-66
2022/08/16 15:48:05;;;;;;;;;;;;;;;27.55;40.53;99836.88;5108820;28;19969;-66
2022/08/16 15:51:08;;;;;;;;;;;;;;;27.37;40.79;99845.53;5106884;28;19976;-65
2022/08/16 15:54:12;;;;;;;;;;;;;;;27.31;42.50;99852.59;5109437;28;19922;-65
2022/08/16 15:57:15;;;;;;;;;;;;;;;27.41;42.42;99844.13;5108852;28;20326;-65
2022/08/16 16:00:21;;;;;;;;;;;;;;;27.35;43.77;99853.00;5108708;28;20398;-64
2022/08/16 16:03:25;;;;;;;;;;;;;;;29.81;38.52;99839.31;5088696;28;19972;-66
2022/08/16 16:06:29;;;;;;;;;;;;;;;31.79;34.80;99833.28;5088502;28;19918;-65
2022/08/16 16:09:34;;;;;;;;;;;;;;;32.62;32.06;99835.63;5089298;28;19923;-65
2022/08/16 16:12:37;;;;;;;;;;;;;;;32.94;31.43;99832.41;5089121;28;20320;-64
2022/08/16 16:15:43;;;;;;;;;;;;;;;32.92;31.21;99823.69;5095933;28;20003;-65